sensor_id;sensor_type;location;lat;lon;timestamp;P1;durP1;ratioP1;P2;durP2;ratioP2
54641;SDS011;40536;53.194;5.728;2023-04-03T00:01:10;9.63;;;8.82;;
54641;SDS011;40536;53.194;5.728;2023-04-03T00:03:36;9.55;;;8.70;;
54641;SDS011;40536;53.194;5.728;2023-04-03T00:06:02;9.80;;;8.90;;
54641;SDS011;40536;53.194;5.728;2023-04-03T00:08:28;9.45;;;8.65;;
54641;SDS011;40536;53.194;5.728;2023-04-03T00:10:56;9.52;;;8.63;;
54641;SDS011;40536;53.194;5.728;2023-04-03T00:13:22;9.90;;;9.00;;
54641;SDS011;40536;53.194;5.728;2023-04-03T00:15:48;9.45;;;8.65;;
54641;SDS011;40536;53.194;5.728;2023-04-03T00:18:14;9.38;;;8.60;;
54641;SDS011;40536;53.194;5.728;2023-04-03T00:20:40;9.23;;;8.38;;
54641;SDS011;40536;53.194;5.728;2023-04-03T00:23:06;9.93;;;9.02;;
54641;SDS011;40536;53.194;5.728;2023-04-03T00:25:32;9.30;;;8.50;;
54641;SDS011;40536;53.194;5.728;2023-04-03T00:27:58;9.30;;;8.50;;
54641;SDS011;40536;53.194;5.728;2023-04-03T00:30:24;9.68;;;8.82;;
54641;SDS011;40536;53.194;5.728;2023-04-03T00:32:51;9.65;;;8.40;;
54641;SDS011;40536;53.194;5.728;2023-04-03T00:35:17;10.10;;;9.30;;
54641;SDS011;40536;53.194;5.728;2023-04-03T00:37:46;12.65;;;9.07;;
54641;SDS011;40536;53.194;5.728;2023-04-03T00:40:12;9.32;;;8.52;;
54641;SDS011;40536;53.194;5.728;2023-04-03T00:42:40;9.68;;;8.77;;
54641;SDS011;40536;53.194;5.728;2023-04-03T00:47:35;10.73;;;9.73;;
54641;SDS011;40536;53.194;5.728;2023-04-03T00:50:02;10.07;;;9.23;;
54641;SDS011;40536;53.194;5.728;2023-04-03T00:52:29;10.70;;;9.80;;
54641;SDS011;40536;53.194;5.728;2023-04-03T00:54:57;9.80;;;9.00;;
54641;SDS011;40536;53.194;5.728;2023-04-03T00:57:27;10.20;;;9.30;;
54641;SDS011;40536;53.194;5.728;2023-04-03T00:59:55;10.68;;;9.52;;
54641;SDS011;40536;53.194;5.728;2023-04-03T01:02:26;10.20;;;9.40;;
54641;SDS011;40536;53.194;5.728;2023-04-03T01:04:52;9.90;;;9.13;;
54641;SDS011;40536;53.194;5.728;2023-04-03T01:09:48;10.20;;;9.30;;
54641;SDS011;40536;53.194;5.728;2023-04-03T01:12:19;9.70;;;8.90;;
54641;SDS011;40536;53.194;5.728;2023-04-03T01:14:48;9.30;;;8.50;;
54641;SDS011;40536;53.194;5.728;2023-04-03T01:25:33;10.15;;;9.23;;
54641;SDS011;40536;53.194;5.728;2023-04-03T01:28:01;10.10;;;9.20;;
54641;SDS011;40536;53.194;5.728;2023-04-03T01:30:30;9.50;;;8.70;;
54641;SDS011;40536;53.194;5.728;2023-04-03T01:32:59;9.68;;;8.82;;
54641;SDS011;40536;53.194;5.728;2023-04-03T01:35:24;9.77;;;8.98;;
54641;SDS011;40536;53.194;5.728;2023-04-03T01:37:50;9.23;;;8.48;;
54641;SDS011;40536;53.194;5.728;2023-04-03T01:40:16;9.63;;;8.82;;
54641;SDS011;40536;53.194;5.728;2023-04-03T01:42:42;9.57;;;8.80;;
54641;SDS011;40536;53.194;5.728;2023-04-03T01:45:07;9.07;;;8.20;;
54641;SDS011;40536;53.194;5.728;2023-04-03T01:47:33;9.82;;;8.88;;
54641;SDS011;40536;53.194;5.728;2023-04-03T01:49:59;9.77;;;8.88;;
54641;SDS011;40536;53.194;5.728;2023-04-03T01:52:25;8.90;;;8.15;;
54641;SDS011;40536;53.194;5.728;2023-04-03T01:54:51;9.50;;;8.70;;
54641;SDS011;40536;53.194;5.728;2023-04-03T01:57:16;9.88;;;8.98;;
54641;SDS011;40536;53.194;5.728;2023-04-03T01:59:42;10.13;;;9.23;;
54641;SDS011;40536;53.194;5.728;2023-04-03T02:02:08;9.52;;;8.75;;
54641;SDS011;40536;53.194;5.728;2023-04-03T02:04:33;9.48;;;8.70;;
54641;SDS011;40536;53.194;5.728;2023-04-03T02:06:59;9.15;;;8.30;;
54641;SDS011;40536;53.194;5.728;2023-04-03T02:09:25;11.65;;;8.70;;
54641;SDS011;40536;53.194;5.728;2023-04-03T02:11:52;8.48;;;7.72;;
54641;SDS011;40536;53.194;5.728;2023-04-03T02:14:18;9.70;;;8.80;;
54641;SDS011;40536;53.194;5.728;2023-04-03T02:16:43;9.43;;;8.57;;
54641;SDS011;40536;53.194;5.728;2023-04-03T02:19:09;9.38;;;8.50;;
54641;SDS011;40536;53.194;5.728;2023-04-03T02:21:35;9.68;;;8.85;;
54641;SDS011;40536;53.194;5.728;2023-04-03T02:24:00;9.35;;;8.48;;
54641;SDS011;40536;53.194;5.728;2023-04-03T02:26:26;8.73;;;8.02;;
54641;SDS011;40536;53.194;5.728;2023-04-03T02:28:52;8.77;;;7.75;;
54641;SDS011;40536;53.194;5.728;2023-04-03T02:31:17;8.43;;;7.72;;
54641;SDS011;40536;53.194;5.728;2023-04-03T02:33:43;10.13;;;9.23;;
54641;SDS011;40536;53.194;5.728;2023-04-03T02:36:09;9.20;;;8.50;;
54641;SDS011;40536;53.194;5.728;2023-04-03T02:38:35;9.25;;;8.45;;
54641;SDS011;40536;53.194;5.728;2023-04-03T02:41:02;9.35;;;8.45;;
54641;SDS011;40536;53.194;5.728;2023-04-03T02:43:28;9.65;;;8.63;;
54641;SDS011;40536;53.194;5.728;2023-04-03T02:45:54;9.30;;;8.23;;
54641;SDS011;40536;53.194;5.728;2023-04-03T02:48:20;8.75;;;8.00;;
54641;SDS011;40536;53.194;5.728;2023-04-03T02:50:46;9.60;;;8.75;;
54641;SDS011;40536;53.194;5.728;2023-04-03T02:53:12;10.18;;;9.18;;
54641;SDS011;40536;53.194;5.728;2023-04-03T02:55:38;9.63;;;8.80;;
54641;SDS011;40536;53.194;5.728;2023-04-03T02:58:03;10.02;;;9.23;;
54641;SDS011;40536;53.194;5.728;2023-04-03T03:00:29;10.27;;;9.27;;
54641;SDS011;40536;53.194;5.728;2023-04-03T03:02:55;10.02;;;9.05;;
54641;SDS011;40536;53.194;5.728;2023-04-03T03:05:21;9.25;;;8.55;;
54641;SDS011;40536;53.194;5.728;2023-04-03T03:07:47;9.60;;;8.80;;
54641;SDS011;40536;53.194;5.728;2023-04-03T03:10:13;10.27;;;9.20;;
54641;SDS011;40536;53.194;5.728;2023-04-03T03:12:39;11.75;;;10.65;;
54641;SDS011;40536;53.194;5.728;2023-04-03T03:15:06;11.40;;;10.30;;
54641;SDS011;40536;53.194;5.728;2023-04-03T03:17:32;10.00;;;9.07;;
54641;SDS011;40536;53.194;5.728;2023-04-03T03:19:57;10.00;;;9.10;;
54641;SDS011;40536;53.194;5.728;2023-04-03T03:22:23;9.93;;;9.10;;
54641;SDS011;40536;53.194;5.728;2023-04-03T03:24:51;12.35;;;9.65;;
54641;SDS011;40536;53.194;5.728;2023-04-03T03:27:16;10.98;;;10.05;;
54641;SDS011;40536;53.194;5.728;2023-04-03T03:29:42;10.23;;;9.23;;
54641;SDS011;40536;53.194;5.728;2023-04-03T03:32:08;10.80;;;9.68;;
54641;SDS011;40536;53.194;5.728;2023-04-03T03:34:35;9.90;;;8.88;;
54641;SDS011;40536;53.194;5.728;2023-04-03T03:37:01;9.93;;;8.75;;
54641;SDS011;40536;53.194;5.728;2023-04-03T03:39:26;10.32;;;9.27;;
54641;SDS011;40536;53.194;5.728;2023-04-03T03:41:52;9.70;;;8.90;;
54641;SDS011;40536;53.194;5.728;2023-04-03T03:44:18;10.48;;;9.57;;
54641;SDS011;40536;53.194;5.728;2023-04-03T03:46:45;9.88;;;8.98;;
54641;SDS011;40536;53.194;5.728;2023-04-03T03:49:10;9.95;;;9.15;;
54641;SDS011;40536;53.194;5.728;2023-04-03T03:51:36;9.88;;;9.02;;
54641;SDS011;40536;53.194;5.728;2023-04-03T03:54:03;10.43;;;9.43;;
54641;SDS011;40536;53.194;5.728;2023-04-03T03:56:29;10.10;;;9.20;;
54641;SDS011;40536;53.194;5.728;2023-04-03T03:58:55;10.20;;;9.27;;
54641;SDS011;40536;53.194;5.728;2023-04-03T04:01:21;12.55;;;9.57;;
54641;SDS011;40536;53.194;5.728;2023-04-03T04:03:50;9.90;;;8.90;;
54641;SDS011;40536;53.194;5.728;2023-04-03T04:06:16;10.32;;;9.32;;
54641;SDS011;40536;53.194;5.728;2023-04-03T04:08:42;10.98;;;9.38;;
54641;SDS011;40536;53.194;5.728;2023-04-03T04:11:08;12.48;;;10.05;;
54641;SDS011;40536;53.194;5.728;2023-04-03T04:13:34;10.15;;;9.25;;
54641;SDS011;40536;53.194;5.728;2023-04-03T04:16:00;10.70;;;9.68;;
54641;SDS011;40536;53.194;5.728;2023-04-03T04:18:26;9.88;;;9.00;;
54641;SDS011;40536;53.194;5.728;2023-04-03T04:20:51;10.93;;;9.93;;
54641;SDS011;40536;53.194;5.728;2023-04-03T04:23:17;10.18;;;9.27;;
54641;SDS011;40536;53.194;5.728;2023-04-03T04:25:47;14.88;;;9.60;;
54641;SDS011;40536;53.194;5.728;2023-04-03T04:28:13;11.07;;;10.00;;
54641;SDS011;40536;53.194;5.728;2023-04-03T04:30:40;10.90;;;9.70;;
54641;SDS011;40536;53.194;5.728;2023-04-03T04:33:06;10.77;;;9.75;;
54641;SDS011;40536;53.194;5.728;2023-04-03T04:35:32;10.65;;;9.73;;
54641;SDS011;40536;53.194;5.728;2023-04-03T04:37:58;12.18;;;10.20;;
54641;SDS011;40536;53.194;5.728;2023-04-03T04:40:23;10.73;;;9.60;;
54641;SDS011;40536;53.194;5.728;2023-04-03T04:42:49;12.88;;;10.10;;
54641;SDS011;40536;53.194;5.728;2023-04-03T04:45:15;10.60;;;9.60;;
54641;SDS011;40536;53.194;5.728;2023-04-03T04:47:41;10.57;;;9.52;;
54641;SDS011;40536;53.194;5.728;2023-04-03T04:50:07;11.35;;;9.60;;
54641;SDS011;40536;53.194;5.728;2023-04-03T04:52:33;11.10;;;10.07;;
54641;SDS011;40536;53.194;5.728;2023-04-03T04:54:59;10.63;;;9.30;;
54641;SDS011;40536;53.194;5.728;2023-04-03T04:57:24;11.43;;;8.68;;
54641;SDS011;40536;53.194;5.728;2023-04-03T04:59:51;9.88;;;8.38;;
54641;SDS011;40536;53.194;5.728;2023-04-03T05:02:16;10.85;;;8.68;;
54641;SDS011;40536;53.194;5.728;2023-04-03T05:04:42;9.20;;;8.30;;
54641;SDS011;40536;53.194;5.728;2023-04-03T05:07:08;11.82;;;8.20;;
54641;SDS011;40536;53.194;5.728;2023-04-03T05:09:34;13.00;;;8.35;;
54641;SDS011;40536;53.194;5.728;2023-04-03T05:11:59;9.18;;;8.23;;
54641;SDS011;40536;53.194;5.728;2023-04-03T05:14:25;10.18;;;8.00;;
54641;SDS011;40536;53.194;5.728;2023-04-03T05:16:51;9.45;;;8.40;;
54641;SDS011;40536;53.194;5.728;2023-04-03T05:19:19;9.15;;;8.05;;
54641;SDS011;40536;53.194;5.728;2023-04-03T05:21:45;9.77;;;8.10;;
54641;SDS011;40536;53.194;5.728;2023-04-03T05:24:12;8.85;;;7.90;;
54641;SDS011;40536;53.194;5.728;2023-04-03T05:26:38;9.07;;;8.00;;
54641;SDS011;40536;53.194;5.728;2023-04-03T05:29:04;12.65;;;8.00;;
54641;SDS011;40536;53.194;5.728;2023-04-03T05:31:30;14.20;;;9.02;;
54641;SDS011;40536;53.194;5.728;2023-04-03T05:33:55;11.23;;;8.05;;
54641;SDS011;40536;53.194;5.728;2023-04-03T05:36:21;8.85;;;7.72;;
54641;SDS011;40536;53.194;5.728;2023-04-03T05:38:47;10.88;;;7.75;;
54641;SDS011;40536;53.194;5.728;2023-04-03T05:41:13;9.35;;;8.13;;
54641;SDS011;40536;53.194;5.728;2023-04-03T05:43:40;11.07;;;8.20;;
54641;SDS011;40536;53.194;5.728;2023-04-03T05:46:13;9.75;;;8.02;;
54641;SDS011;40536;53.194;5.728;2023-04-03T05:48:43;10.02;;;8.40;;
54641;SDS011;40536;53.194;5.728;2023-04-03T05:51:14;10.95;;;8.02;;
54641;SDS011;40536;53.194;5.728;2023-04-03T05:53:41;9.65;;;8.65;;
54641;SDS011;40536;53.194;5.728;2023-04-03T05:56:08;8.93;;;7.75;;
54641;SDS011;40536;53.194;5.728;2023-04-03T05:58:34;10.80;;;8.43;;
54641;SDS011;40536;53.194;5.728;2023-04-03T06:01:00;9.98;;;8.20;;
54641;SDS011;40536;53.194;5.728;2023-04-03T06:03:26;10.27;;;8.98;;
54641;SDS011;40536;53.194;5.728;2023-04-03T06:05:52;10.27;;;7.93;;
54641;SDS011;40536;53.194;5.728;2023-04-03T06:08:21;11.05;;;8.07;;
54641;SDS011;40536;53.194;5.728;2023-04-03T06:10:46;9.40;;;7.78;;
54641;SDS011;40536;53.194;5.728;2023-04-03T06:13:12;8.68;;;7.88;;
54641;SDS011;40536;53.194;5.728;2023-04-03T06:15:38;12.15;;;8.05;;
54641;SDS011;40536;53.194;5.728;2023-04-03T06:18:05;12.43;;;8.85;;
54641;SDS011;40536;53.194;5.728;2023-04-03T06:20:31;9.00;;;8.10;;
54641;SDS011;40536;53.194;5.728;2023-04-03T06:22:57;10.57;;;8.00;;
54641;SDS011;40536;53.194;5.728;2023-04-03T06:25:23;10.05;;;7.82;;
54641;SDS011;40536;53.194;5.728;2023-04-03T06:27:49;9.43;;;7.05;;
54641;SDS011;40536;53.194;5.728;2023-04-03T06:30:15;11.68;;;7.70;;
54641;SDS011;40536;53.194;5.728;2023-04-03T06:32:40;10.68;;;7.60;;
54641;SDS011;40536;53.194;5.728;2023-04-03T06:35:06;11.40;;;7.78;;
54641;SDS011;40536;53.194;5.728;2023-04-03T06:37:33;10.18;;;7.38;;
54641;SDS011;40536;53.194;5.728;2023-04-03T06:39:59;10.15;;;7.65;;
54641;SDS011;40536;53.194;5.728;2023-04-03T06:42:25;8.35;;;7.55;;
54641;SDS011;40536;53.194;5.728;2023-04-03T06:44:51;8.75;;;7.85;;
54641;SDS011;40536;53.194;5.728;2023-04-03T06:47:17;9.07;;;8.18;;
54641;SDS011;40536;53.194;5.728;2023-04-03T06:49:43;9.30;;;8.20;;
54641;SDS011;40536;53.194;5.728;2023-04-03T06:52:09;10.60;;;8.55;;
54641;SDS011;40536;53.194;5.728;2023-04-03T06:54:37;9.43;;;8.10;;
54641;SDS011;40536;53.194;5.728;2023-04-03T06:57:03;9.35;;;8.52;;
54641;SDS011;40536;53.194;5.728;2023-04-03T06:59:28;9.60;;;8.77;;
54641;SDS011;40536;53.194;5.728;2023-04-03T07:01:54;10.85;;;9.05;;
54641;SDS011;40536;53.194;5.728;2023-04-03T07:04:20;10.60;;;8.63;;
54641;SDS011;40536;53.194;5.728;2023-04-03T07:06:46;8.85;;;8.05;;
54641;SDS011;40536;53.194;5.728;2023-04-03T07:09:12;8.85;;;8.02;;
54641;SDS011;40536;53.194;5.728;2023-04-03T07:11:41;9.27;;;8.05;;
54641;SDS011;40536;53.194;5.728;2023-04-03T07:14:07;9.00;;;8.10;;
54641;SDS011;40536;53.194;5.728;2023-04-03T07:16:33;9.13;;;8.20;;
54641;SDS011;40536;53.194;5.728;2023-04-03T07:19:00;9.13;;;7.88;;
54641;SDS011;40536;53.194;5.728;2023-04-03T07:21:26;10.48;;;7.95;;
54641;SDS011;40536;53.194;5.728;2023-04-03T07:23:53;8.90;;;8.10;;
54641;SDS011;40536;53.194;5.728;2023-04-03T07:26:19;9.30;;;7.97;;
54641;SDS011;40536;53.194;5.728;2023-04-03T07:28:46;8.90;;;8.00;;
54641;SDS011;40536;53.194;5.728;2023-04-03T07:31:13;8.77;;;7.85;;
54641;SDS011;40536;53.194;5.728;2023-04-03T07:33:42;8.50;;;7.70;;
54641;SDS011;40536;53.194;5.728;2023-04-03T07:36:08;8.60;;;7.75;;
54641;SDS011;40536;53.194;5.728;2023-04-03T07:38:35;9.07;;;8.00;;
54641;SDS011;40536;53.194;5.728;2023-04-03T07:41:02;10.02;;;8.15;;
54641;SDS011;40536;53.194;5.728;2023-04-03T07:43:28;8.77;;;7.97;;
54641;SDS011;40536;53.194;5.728;2023-04-03T07:45:53;10.65;;;8.60;;
54641;SDS011;40536;53.194;5.728;2023-04-03T07:48:20;9.10;;;8.30;;
54641;SDS011;40536;53.194;5.728;2023-04-03T07:50:47;9.20;;;8.30;;
54641;SDS011;40536;53.194;5.728;2023-04-03T07:53:13;9.90;;;9.00;;
54641;SDS011;40536;53.194;5.728;2023-04-03T07:55:39;9.45;;;8.63;;
54641;SDS011;40536;53.194;5.728;2023-04-03T07:58:09;11.27;;;8.40;;
54641;SDS011;40536;53.194;5.728;2023-04-03T08:00:36;9.68;;;8.15;;
54641;SDS011;40536;53.194;5.728;2023-04-03T08:03:03;11.25;;;8.43;;
54641;SDS011;40536;53.194;5.728;2023-04-03T08:05:29;10.30;;;8.70;;
54641;SDS011;40536;53.194;5.728;2023-04-03T08:07:54;9.82;;;8.48;;
54641;SDS011;40536;53.194;5.728;2023-04-03T08:10:20;8.95;;;8.05;;
54641;SDS011;40536;53.194;5.728;2023-04-03T08:12:46;8.80;;;8.00;;
54641;SDS011;40536;53.194;5.728;2023-04-03T08:15:13;9.60;;;7.97;;
54641;SDS011;40536;53.194;5.728;2023-04-03T08:17:38;9.57;;;7.53;;
54641;SDS011;40536;53.194;5.728;2023-04-03T08:20:04;8.10;;;7.30;;
54641;SDS011;40536;53.194;5.728;2023-04-03T08:22:32;11.52;;;7.82;;
54641;SDS011;40536;53.194;5.728;2023-04-03T08:24:58;7.97;;;7.05;;
54641;SDS011;40536;53.194;5.728;2023-04-03T08:27:24;7.97;;;7.22;;
54641;SDS011;40536;53.194;5.728;2023-04-03T08:29:50;7.50;;;6.80;;
54641;SDS011;40536;53.194;5.728;2023-04-03T08:32:16;7.57;;;6.70;;
54641;SDS011;40536;53.194;5.728;2023-04-03T08:34:42;12.38;;;6.35;;
54641;SDS011;40536;53.194;5.728;2023-04-03T08:37:08;7.38;;;6.40;;
54641;SDS011;40536;53.194;5.728;2023-04-03T08:39:34;10.40;;;6.55;;
54641;SDS011;40536;53.194;5.728;2023-04-03T08:42:02;8.27;;;6.30;;
54641;SDS011;40536;53.194;5.728;2023-04-03T08:44:48;7.97;;;6.55;;
54641;SDS011;40536;53.194;5.728;2023-04-03T08:50:13;7.53;;;6.50;;
54641;SDS011;40536;53.194;5.728;2023-04-03T08:52:44;7.82;;;6.70;;
54641;SDS011;40536;53.194;5.728;2023-04-03T08:58:02;7.10;;;6.40;;
54641;SDS011;40536;53.194;5.728;2023-04-03T09:03:29;7.32;;;6.60;;
54641;SDS011;40536;53.194;5.728;2023-04-03T09:05:59;6.80;;;6.20;;
54641;SDS011;40536;53.194;5.728;2023-04-03T09:16:18;7.13;;;6.43;;
54641;SDS011;40536;53.194;5.728;2023-04-03T09:18:45;7.05;;;6.45;;
54641;SDS011;40536;53.194;5.728;2023-04-03T09:21:24;7.65;;;6.25;;
54641;SDS011;40536;53.194;5.728;2023-04-03T09:23:58;6.40;;;5.75;;
54641;SDS011;40536;53.194;5.728;2023-04-03T09:26:26;6.15;;;5.55;;
54641;SDS011;40536;53.194;5.728;2023-04-03T09:28:59;6.97;;;5.47;;
54641;SDS011;40536;53.194;5.728;2023-04-03T09:31:31;7.22;;;5.65;;
54641;SDS011;40536;53.194;5.728;2023-04-03T09:34:22;5.82;;;5.30;;
54641;SDS011;40536;53.194;5.728;2023-04-03T09:36:52;6.72;;;5.35;;
54641;SDS011;40536;53.194;5.728;2023-04-03T09:39:23;5.30;;;4.80;;
54641;SDS011;40536;53.194;5.728;2023-04-03T09:42:04;7.85;;;5.18;;
54641;SDS011;40536;53.194;5.728;2023-04-03T09:44:38;5.40;;;4.90;;
54641;SDS011;40536;53.194;5.728;2023-04-03T09:49:44;5.18;;;4.68;;
54641;SDS011;40536;53.194;5.728;2023-04-03T09:52:22;5.53;;;4.78;;
54641;SDS011;40536;53.194;5.728;2023-04-03T09:54:50;6.38;;;4.90;;
54641;SDS011;40536;53.194;5.728;2023-04-03T09:57:15;5.18;;;4.68;;
54641;SDS011;40536;53.194;5.728;2023-04-03T10:00:01;5.25;;;4.75;;
54641;SDS011;40536;53.194;5.728;2023-04-03T10:04:58;5.28;;;4.63;;
54641;SDS011;40536;53.194;5.728;2023-04-03T10:07:31;5.18;;;4.68;;
54641;SDS011;40536;53.194;5.728;2023-04-03T10:12:39;5.53;;;5.03;;
54641;SDS011;40536;53.194;5.728;2023-04-03T10:15:16;5.07;;;4.68;;
54641;SDS011;40536;53.194;5.728;2023-04-03T10:20:45;5.50;;;4.88;;
54641;SDS011;40536;53.194;5.728;2023-04-03T10:23:24;7.10;;;4.90;;
54641;SDS011;40536;53.194;5.728;2023-04-03T10:33:52;5.20;;;4.70;;
54641;SDS011;40536;53.194;5.728;2023-04-03T10:36:31;6.22;;;4.93;;
54641;SDS011;40536;53.194;5.728;2023-04-03T10:41:43;5.80;;;5.20;;
54641;SDS011;40536;53.194;5.728;2023-04-03T10:44:31;5.50;;;5.00;;
54641;SDS011;40536;53.194;5.728;2023-04-03T10:47:20;5.63;;;5.00;;
54641;SDS011;40536;53.194;5.728;2023-04-03T10:50:15;5.75;;;5.03;;
54641;SDS011;40536;53.194;5.728;2023-04-03T10:58:39;7.05;;;5.60;;
54641;SDS011;40536;53.194;5.728;2023-04-03T11:01:08;5.70;;;5.10;;
54641;SDS011;40536;53.194;5.728;2023-04-03T11:03:45;5.35;;;4.82;;
54641;SDS011;40536;53.194;5.728;2023-04-03T11:06:15;6.13;;;5.53;;
54641;SDS011;40536;53.194;5.728;2023-04-03T11:11:35;5.50;;;5.00;;
54641;SDS011;40536;53.194;5.728;2023-04-03T11:14:15;5.20;;;4.70;;
54641;SDS011;40536;53.194;5.728;2023-04-03T11:16:53;5.57;;;5.00;;
54641;SDS011;40536;53.194;5.728;2023-04-03T11:19:34;5.55;;;5.00;;
54641;SDS011;40536;53.194;5.728;2023-04-03T11:22:25;5.63;;;5.10;;
54641;SDS011;40536;53.194;5.728;2023-04-03T11:25:32;6.30;;;5.45;;
54641;SDS011;40536;53.194;5.728;2023-04-03T11:27:49;5.15;;;4.65;;
54641;SDS011;40536;53.194;5.728;2023-04-03T11:30:20;6.13;;;5.10;;
54641;SDS011;40536;53.194;5.728;2023-04-03T11:35:45;5.60;;;5.10;;
54641;SDS011;40536;53.194;5.728;2023-04-03T11:38:24;5.72;;;5.13;;
54641;SDS011;40536;53.194;5.728;2023-04-03T11:40:54;6.68;;;5.28;;
54641;SDS011;40536;53.194;5.728;2023-04-03T11:43:26;6.70;;;5.70;;
54641;SDS011;40536;53.194;5.728;2023-04-03T11:50:55;5.43;;;4.93;;
54641;SDS011;40536;53.194;5.728;2023-04-03T11:53:26;5.70;;;5.20;;
54641;SDS011;40536;53.194;5.728;2023-04-03T11:58:28;5.80;;;5.20;;
54641;SDS011;40536;53.194;5.728;2023-04-03T12:16:21;5.60;;;5.10;;
54641;SDS011;40536;53.194;5.728;2023-04-03T12:40:01;6.05;;;5.45;;
54641;SDS011;40536;53.194;5.728;2023-04-03T12:43:13;6.20;;;5.60;;
54641;SDS011;40536;53.194;5.728;2023-04-03T12:46:09;5.97;;;5.38;;
54641;SDS011;40536;53.194;5.728;2023-04-03T12:48:53;6.18;;;5.57;;
54641;SDS011;40536;53.194;5.728;2023-04-03T12:51:34;5.70;;;5.20;;
54641;SDS011;40536;53.194;5.728;2023-04-03T12:54:27;6.10;;;5.50;;
54641;SDS011;40536;53.194;5.728;2023-04-03T12:57:10;5.88;;;5.38;;
54641;SDS011;40536;53.194;5.728;2023-04-03T12:59:37;6.68;;;5.65;;
54641;SDS011;40536;53.194;5.728;2023-04-03T13:02:13;5.65;;;5.15;;
54641;SDS011;40536;53.194;5.728;2023-04-03T13:04:53;5.90;;;5.40;;
54641;SDS011;40536;53.194;5.728;2023-04-03T13:07:24;5.57;;;4.95;;
54641;SDS011;40536;53.194;5.728;2023-04-03T13:10:16;5.80;;;5.20;;
54641;SDS011;40536;53.194;5.728;2023-04-03T13:12:50;6.20;;;5.60;;
54641;SDS011;40536;53.194;5.728;2023-04-03T13:17:55;5.82;;;5.28;;
54641;SDS011;40536;53.194;5.728;2023-04-03T13:20:27;6.78;;;5.30;;
54641;SDS011;40536;53.194;5.728;2023-04-03T13:25:23;6.95;;;5.30;;
54641;SDS011;40536;53.194;5.728;2023-04-03T13:27:51;7.60;;;5.40;;
54641;SDS011;40536;53.194;5.728;2023-04-03T13:30:31;5.88;;;5.35;;
54641;SDS011;40536;53.194;5.728;2023-04-03T13:33:00;6.00;;;5.20;;
54641;SDS011;40536;53.194;5.728;2023-04-03T13:35:42;6.50;;;5.18;;
54641;SDS011;40536;53.194;5.728;2023-04-03T13:40:47;6.70;;;5.10;;
54641;SDS011;40536;53.194;5.728;2023-04-03T13:43:19;6.50;;;5.60;;
54641;SDS011;40536;53.194;5.728;2023-04-03T13:48:38;7.03;;;5.15;;
54641;SDS011;40536;53.194;5.728;2023-04-03T13:53:43;7.22;;;5.32;;
54641;SDS011;40536;53.194;5.728;2023-04-03T13:56:19;7.63;;;5.60;;
54641;SDS011;40536;53.194;5.728;2023-04-03T13:58:59;5.80;;;5.20;;
54641;SDS011;40536;53.194;5.728;2023-04-03T14:01:40;6.60;;;5.07;;
54641;SDS011;40536;53.194;5.728;2023-04-03T14:04:12;6.50;;;5.45;;
54641;SDS011;40536;53.194;5.728;2023-04-03T14:06:42;7.18;;;5.40;;
54641;SDS011;40536;53.194;5.728;2023-04-03T14:09:07;7.55;;;5.35;;
54641;SDS011;40536;53.194;5.728;2023-04-03T14:11:33;7.05;;;5.10;;
54641;SDS011;40536;53.194;5.728;2023-04-03T14:14:01;5.97;;;5.38;;
54641;SDS011;40536;53.194;5.728;2023-04-03T14:16:37;5.68;;;5.07;;
54641;SDS011;40536;53.194;5.728;2023-04-03T14:19:05;6.50;;;5.18;;
54641;SDS011;40536;53.194;5.728;2023-04-03T14:21:32;5.55;;;4.90;;
54641;SDS011;40536;53.194;5.728;2023-04-03T14:23:58;5.50;;;5.00;;
54641;SDS011;40536;53.194;5.728;2023-04-03T14:26:24;5.60;;;5.07;;
54641;SDS011;40536;53.194;5.728;2023-04-03T14:28:53;6.07;;;5.03;;
54641;SDS011;40536;53.194;5.728;2023-04-03T14:31:23;5.95;;;5.20;;
54641;SDS011;40536;53.194;5.728;2023-04-03T14:33:49;6.07;;;5.47;;
54641;SDS011;40536;53.194;5.728;2023-04-03T14:36:17;5.85;;;5.13;;
54641;SDS011;40536;53.194;5.728;2023-04-03T14:38:45;5.40;;;4.90;;
54641;SDS011;40536;53.194;5.728;2023-04-03T14:41:15;5.50;;;5.00;;
54641;SDS011;40536;53.194;5.728;2023-04-03T14:43:46;7.63;;;5.25;;
54641;SDS011;40536;53.194;5.728;2023-04-03T14:46:20;7.28;;;4.80;;
54641;SDS011;40536;53.194;5.728;2023-04-03T14:48:57;6.20;;;5.00;;
54641;SDS011;40536;53.194;5.728;2023-04-03T14:51:23;5.97;;;5.35;;
54641;SDS011;40536;53.194;5.728;2023-04-03T14:53:49;5.70;;;5.20;;
54641;SDS011;40536;53.194;5.728;2023-04-03T14:56:26;5.35;;;4.85;;
54641;SDS011;40536;53.194;5.728;2023-04-03T14:58:57;5.47;;;4.97;;
54641;SDS011;40536;53.194;5.728;2023-04-03T15:01:24;5.63;;;5.10;;
54641;SDS011;40536;53.194;5.728;2023-04-03T15:03:51;6.22;;;4.85;;
54641;SDS011;40536;53.194;5.728;2023-04-03T15:06:16;7.15;;;5.63;;
54641;SDS011;40536;53.194;5.728;2023-04-03T15:08:42;7.03;;;5.72;;
54641;SDS011;40536;53.194;5.728;2023-04-03T15:11:09;7.53;;;5.00;;
54641;SDS011;40536;53.194;5.728;2023-04-03T15:13:36;5.68;;;5.13;;
54641;SDS011;40536;53.194;5.728;2023-04-03T15:16:02;8.43;;;5.50;;
54641;SDS011;40536;53.194;5.728;2023-04-03T15:18:30;6.18;;;5.10;;
54641;SDS011;40536;53.194;5.728;2023-04-03T15:21:02;5.93;;;5.32;;
54641;SDS011;40536;53.194;5.728;2023-04-03T15:23:28;7.13;;;6.47;;
54641;SDS011;40536;53.194;5.728;2023-04-03T15:25:55;7.63;;;6.93;;
54641;SDS011;40536;53.194;5.728;2023-04-03T15:30:58;6.88;;;6.28;;
54641;SDS011;40536;53.194;5.728;2023-04-03T15:33:27;6.75;;;5.65;;
54641;SDS011;40536;53.194;5.728;2023-04-03T15:35:53;8.60;;;7.65;;
54641;SDS011;40536;53.194;5.728;2023-04-03T15:38:19;7.65;;;6.50;;
54641;SDS011;40536;53.194;5.728;2023-04-03T15:40:44;9.25;;;6.32;;
54641;SDS011;40536;53.194;5.728;2023-04-03T15:43:12;7.45;;;6.03;;
54641;SDS011;40536;53.194;5.728;2023-04-03T15:45:39;6.97;;;6.07;;
54641;SDS011;40536;53.194;5.728;2023-04-03T15:48:05;7.18;;;5.80;;
54641;SDS011;40536;53.194;5.728;2023-04-03T15:50:32;7.40;;;6.53;;
54641;SDS011;40536;53.194;5.728;2023-04-03T15:52:58;6.75;;;6.15;;
54641;SDS011;40536;53.194;5.728;2023-04-03T15:55:27;6.80;;;6.10;;
54641;SDS011;40536;53.194;5.728;2023-04-03T15:57:54;6.47;;;5.88;;
54641;SDS011;40536;53.194;5.728;2023-04-03T16:00:20;7.45;;;5.85;;
54641;SDS011;40536;53.194;5.728;2023-04-03T16:02:47;7.00;;;6.30;;
54641;SDS011;40536;53.194;5.728;2023-04-03T16:05:15;7.47;;;5.63;;
54641;SDS011;40536;53.194;5.728;2023-04-03T16:07:42;6.22;;;5.22;;
54641;SDS011;40536;53.194;5.728;2023-04-03T16:10:09;18.40;;;5.30;;
54641;SDS011;40536;53.194;5.728;2023-04-03T16:12:35;6.22;;;5.63;;
54641;SDS011;40536;53.194;5.728;2023-04-03T16:15:02;5.78;;;5.18;;
54641;SDS011;40536;53.194;5.728;2023-04-03T16:17:28;6.43;;;5.82;;
54641;SDS011;40536;53.194;5.728;2023-04-03T16:19:54;5.60;;;5.10;;
54641;SDS011;40536;53.194;5.728;2023-04-03T16:22:21;5.80;;;5.25;;
54641;SDS011;40536;53.194;5.728;2023-04-03T16:24:48;6.05;;;5.55;;
54641;SDS011;40536;53.194;5.728;2023-04-03T16:27:14;6.18;;;5.57;;
54641;SDS011;40536;53.194;5.728;2023-04-03T16:29:40;6.00;;;5.50;;
54641;SDS011;40536;53.194;5.728;2023-04-03T16:32:06;5.78;;;5.00;;
54641;SDS011;40536;53.194;5.728;2023-04-03T16:34:32;7.60;;;5.88;;
54641;SDS011;40536;53.194;5.728;2023-04-03T16:36:58;6.38;;;5.78;;
54641;SDS011;40536;53.194;5.728;2023-04-03T16:39:24;6.18;;;5.50;;
54641;SDS011;40536;53.194;5.728;2023-04-03T16:41:50;7.78;;;5.32;;
54641;SDS011;40536;53.194;5.728;2023-04-03T16:44:16;7.20;;;5.60;;
54641;SDS011;40536;53.194;5.728;2023-04-03T16:46:42;6.28;;;5.47;;
54641;SDS011;40536;53.194;5.728;2023-04-03T16:49:08;7.93;;;5.82;;
54641;SDS011;40536;53.194;5.728;2023-04-03T16:51:34;6.53;;;5.93;;
54641;SDS011;40536;53.194;5.728;2023-04-03T16:53:59;6.00;;;5.50;;